sensor_id;sensor_type;location;lat;lon;timestamp;temperature;humidity
15625;DHT22;7912;51.376;6.126;2023-07-20T01:36:44;19.80;99.90
15625;DHT22;7912;51.376;6.126;2023-07-20T01:39:44;19.70;99.90
15625;DHT22;7912;51.376;6.126;2023-07-20T01:42:51;19.70;99.90
15625;DHT22;7912;51.376;6.126;2023-07-20T01:45:20;19.60;99.90
15625;DHT22;7912;51.376;6.126;2023-07-20T01:48:02;19.60;99.90
15625;DHT22;7912;51.376;6.126;2023-07-20T02:11:34;19.50;99.90
15625;DHT22;7912;51.376;6.126;2023-07-20T03:06:00;19.30;99.90
15625;DHT22;7912;51.376;6.126;2023-07-20T03:08:28;19.30;99.90
15625;DHT22;7912;51.376;6.126;2023-07-20T03:10:55;19.30;99.90
15625;DHT22;7912;51.376;6.126;2023-07-20T03:17:25;19.30;99.90
15625;DHT22;7912;51.376;6.126;2023-07-20T03:20:15;19.20;99.90
15625;DHT22;7912;51.376;6.126;2023-07-20T03:22:42;19.20;99.90
15625;DHT22;7912;51.376;6.126;2023-07-20T03:25:13;19.30;99.90
15625;DHT22;7912;51.376;6.126;2023-07-20T03:27:41;19.20;99.90
15625;DHT22;7912;51.376;6.126;2023-07-20T03:30:08;19.20;99.90
15625;DHT22;7912;51.376;6.126;2023-07-20T03:32:37;19.20;99.90
15625;DHT22;7912;51.376;6.126;2023-07-20T03:35:05;19.20;99.90
15625;DHT22;7912;51.376;6.126;2023-07-20T03:37:33;19.20;99.90
15625;DHT22;7912;51.376;6.126;2023-07-20T03:40:02;19.10;99.90
15625;DHT22;7912;51.376;6.126;2023-07-20T03:42:31;19.20;99.90
15625;DHT22;7912;51.376;6.126;2023-07-20T03:44:58;19.10;99.90
15625;DHT22;7912;51.376;6.126;2023-07-20T03:47:26;19.20;99.90
15625;DHT22;7912;51.376;6.126;2023-07-20T03:49:53;19.20;99.90
15625;DHT22;7912;51.376;6.126;2023-07-20T03:52:21;19.20;99.90
15625;DHT22;7912;51.376;6.126;2023-07-20T03:54:48;19.20;99.90
15625;DHT22;7912;51.376;6.126;2023-07-20T03:57:18;19.20;99.90
15625;DHT22;7912;51.376;6.126;2023-07-20T03:59:45;19.20;99.90
15625;DHT22;7912;51.376;6.126;2023-07-20T04:02:13;19.20;99.90
15625;DHT22;7912;51.376;6.126;2023-07-20T04:04:41;19.20;99.90
15625;DHT22;7912;51.376;6.126;2023-07-20T04:07:08;19.30;99.90
15625;DHT22;7912;51.376;6.126;2023-07-20T04:09:35;19.30;99.90
15625;DHT22;7912;51.376;6.126;2023-07-20T04:12:03;19.30;99.90
15625;DHT22;7912;51.376;6.126;2023-07-20T04:14:31;19.30;99.90
15625;DHT22;7912;51.376;6.126;2023-07-20T04:16:58;19.30;99.90
15625;DHT22;7912;51.376;6.126;2023-07-20T04:19:30;19.40;99.90
15625;DHT22;7912;51.376;6.126;2023-07-20T04:21:58;19.40;99.90
15625;DHT22;7912;51.376;6.126;2023-07-20T04:24:25;19.40;99.90
15625;DHT22;7912;51.376;6.126;2023-07-20T04:26:55;19.40;99.90
15625;DHT22;7912;51.376;6.126;2023-07-20T04:29:23;19.40;99.90
15625;DHT22;7912;51.376;6.126;2023-07-20T04:31:50;19.40;99.90
15625;DHT22;7912;51.376;6.126;2023-07-20T04:34:17;19.50;99.90
15625;DHT22;7912;51.376;6.126;2023-07-20T04:36:45;19.50;99.90
15625;DHT22;7912;51.376;6.126;2023-07-20T04:39:13;19.50;99.90
15625;DHT22;7912;51.376;6.126;2023-07-20T04:41:57;19.50;99.90
15625;DHT22;7912;51.376;6.126;2023-07-20T04:44:24;19.60;99.90
15625;DHT22;7912;51.376;6.126;2023-07-20T04:46:52;19.60;99.90
15625;DHT22;7912;51.376;6.126;2023-07-20T04:49:20;19.60;99.90
15625;DHT22;7912;51.376;6.126;2023-07-20T04:51:47;19.70;99.90
15625;DHT22;7912;51.376;6.126;2023-07-20T04:54:14;19.70;99.90
15625;DHT22;7912;51.376;6.126;2023-07-20T04:56:43;19.70;99.90
15625;DHT22;7912;51.376;6.126;2023-07-20T04:59:11;19.70;99.90
15625;DHT22;7912;51.376;6.126;2023-07-20T05:01:39;19.80;99.90
15625;DHT22;7912;51.376;6.126;2023-07-20T05:04:07;19.80;99.90
15625;DHT22;7912;51.376;6.126;2023-07-20T05:06:35;19.80;99.90
15625;DHT22;7912;51.376;6.126;2023-07-20T05:09:03;19.90;99.90
15625;DHT22;7912;51.376;6.126;2023-07-20T05:11:30;19.90;99.90
15625;DHT22;7912;51.376;6.126;2023-07-20T05:14:01;19.90;99.90
15625;DHT22;7912;51.376;6.126;2023-07-20T05:16:28;20.00;99.90
15625;DHT22;7912;51.376;6.126;2023-07-20T05:18:56;20.00;99.90
15625;DHT22;7912;51.376;6.126;2023-07-20T05:21:24;20.00;99.90
15625;DHT22;7912;51.376;6.126;2023-07-20T05:23:51;20.00;99.90
15625;DHT22;7912;51.376;6.126;2023-07-20T05:26:21;20.10;99.90
15625;DHT22;7912;51.376;6.126;2023-07-20T05:28:49;20.10;99.90
15625;DHT22;7912;51.376;6.126;2023-07-20T05:31:19;20.10;99.90
15625;DHT22;7912;51.376;6.126;2023-07-20T05:33:49;20.20;99.90
15625;DHT22;7912;51.376;6.126;2023-07-20T05:36:17;20.20;99.90
15625;DHT22;7912;51.376;6.126;2023-07-20T05:38:45;20.20;99.90
15625;DHT22;7912;51.376;6.126;2023-07-20T05:41:12;20.30;99.90
15625;DHT22;7912;51.376;6.126;2023-07-20T05:43:39;20.40;99.90
15625;DHT22;7912;51.376;6.126;2023-07-20T05:46:09;20.50;99.90
15625;DHT22;7912;51.376;6.126;2023-07-20T05:48:37;20.60;99.90
15625;DHT22;7912;51.376;6.126;2023-07-20T05:51:04;20.60;99.90
15625;DHT22;7912;51.376;6.126;2023-07-20T05:53:32;20.70;99.90
15625;DHT22;7912;51.376;6.126;2023-07-20T05:56:00;20.80;99.90
15625;DHT22;7912;51.376;6.126;2023-07-20T05:58:31;20.90;99.90
15625;DHT22;7912;51.376;6.126;2023-07-20T06:00:58;21.00;99.90
15625;DHT22;7912;51.376;6.126;2023-07-20T06:03:25;21.00;99.90
15625;DHT22;7912;51.376;6.126;2023-07-20T06:05:59;21.00;99.90
15625;DHT22;7912;51.376;6.126;2023-07-20T06:08:31;21.10;99.90
15625;DHT22;7912;51.376;6.126;2023-07-20T06:10:59;21.10;99.90
15625;DHT22;7912;51.376;6.126;2023-07-20T06:13:26;21.10;99.90
15625;DHT22;7912;51.376;6.126;2023-07-20T06:15:57;21.10;99.90
15625;DHT22;7912;51.376;6.126;2023-07-20T06:18:24;21.10;99.90
15625;DHT22;7912;51.376;6.126;2023-07-20T06:20:52;21.20;99.90
15625;DHT22;7912;51.376;6.126;2023-07-20T06:23:19;21.20;99.90
15625;DHT22;7912;51.376;6.126;2023-07-20T06:25:47;21.30;99.90
15625;DHT22;7912;51.376;6.126;2023-07-20T06:28:15;21.30;99.90
15625;DHT22;7912;51.376;6.126;2023-07-20T06:30:42;21.40;99.90
15625;DHT22;7912;51.376;6.126;2023-07-20T06:33:10;21.40;99.90
15625;DHT22;7912;51.376;6.126;2023-07-20T06:35:41;21.50;99.90
15625;DHT22;7912;51.376;6.126;2023-07-20T06:38:10;21.50;99.90
15625;DHT22;7912;51.376;6.126;2023-07-20T06:40:40;21.60;99.90
15625;DHT22;7912;51.376;6.126;2023-07-20T06:43:08;21.60;99.90
15625;DHT22;7912;51.376;6.126;2023-07-20T06:45:38;21.60;99.90
15625;DHT22;7912;51.376;6.126;2023-07-20T06:48:06;21.60;99.90
15625;DHT22;7912;51.376;6.126;2023-07-20T06:50:33;21.50;99.90
15625;DHT22;7912;51.376;6.126;2023-07-20T06:53:03;21.50;99.90
15625;DHT22;7912;51.376;6.126;2023-07-20T06:55:30;21.50;99.90
15625;DHT22;7912;51.376;6.126;2023-07-20T06:58:07;21.50;99.90
15625;DHT22;7912;51.376;6.126;2023-07-20T07:00:34;21.50;99.90
15625;DHT22;7912;51.376;6.126;2023-07-20T07:03:02;21.40;99.90
15625;DHT22;7912;51.376;6.126;2023-07-20T07:05:30;21.40;99.90
15625;DHT22;7912;51.376;6.126;2023-07-20T07:08:00;21.40;99.90
15625;DHT22;7912;51.376;6.126;2023-07-20T07:10:28;21.40;99.90
15625;DHT22;7912;51.376;6.126;2023-07-20T07:12:58;21.40;99.90
15625;DHT22;7912;51.376;6.126;2023-07-20T07:15:26;21.50;99.90
15625;DHT22;7912;51.376;6.126;2023-07-20T07:17:54;21.60;99.90
15625;DHT22;7912;51.376;6.126;2023-07-20T07:20:23;21.60;99.90
15625;DHT22;7912;51.376;6.126;2023-07-20T07:22:51;21.80;99.90
15625;DHT22;7912;51.376;6.126;2023-07-20T07:25:19;21.90;99.90
15625;DHT22;7912;51.376;6.126;2023-07-20T07:27:50;22.00;99.90
15625;DHT22;7912;51.376;6.126;2023-07-20T07:30:19;22.00;99.90
15625;DHT22;7912;51.376;6.126;2023-07-20T07:32:47;22.00;99.90
15625;DHT22;7912;51.376;6.126;2023-07-20T07:35:42;22.00;99.90
15625;DHT22;7912;51.376;6.126;2023-07-20T07:38:12;22.00;99.90
15625;DHT22;7912;51.376;6.126;2023-07-20T07:40:45;22.00;99.90
15625;DHT22;7912;51.376;6.126;2023-07-20T07:43:13;22.10;99.90
15625;DHT22;7912;51.376;6.126;2023-07-20T07:45:44;22.30;99.90
15625;DHT22;7912;51.376;6.126;2023-07-20T07:48:11;22.50;99.90
15625;DHT22;7912;51.376;6.126;2023-07-20T07:50:39;22.80;99.90
15625;DHT22;7912;51.376;6.126;2023-07-20T07:53:12;23.10;99.90
15625;DHT22;7912;51.376;6.126;2023-07-20T07:55:40;23.40;99.90
15625;DHT22;7912;51.376;6.126;2023-07-20T07:58:09;23.60;99.90
15625;DHT22;7912;51.376;6.126;2023-07-20T08:00:39;23.80;99.90
15625;DHT22;7912;51.376;6.126;2023-07-20T08:03:07;23.80;99.90
15625;DHT22;7912;51.376;6.126;2023-07-20T08:05:36;23.80;99.60
15625;DHT22;7912;51.376;6.126;2023-07-20T08:08:07;23.70;99.40
15625;DHT22;7912;51.376;6.126;2023-07-20T08:10:36;23.70;99.90
15625;DHT22;7912;51.376;6.126;2023-07-20T08:13:04;23.70;99.90
15625;DHT22;7912;51.376;6.126;2023-07-20T08:15:32;23.80;99.90
15625;DHT22;7912;51.376;6.126;2023-07-20T08:18:02;24.20;99.90
15625;DHT22;7912;51.376;6.126;2023-07-20T08:20:33;24.60;99.90
15625;DHT22;7912;51.376;6.126;2023-07-20T08:23:03;25.00;99.90
15625;DHT22;7912;51.376;6.126;2023-07-20T08:25:32;25.40;98.20
15625;DHT22;7912;51.376;6.126;2023-07-20T08:28:03;25.60;96.60
15625;DHT22;7912;51.376;6.126;2023-07-20T08:30:45;25.80;96.50
15625;DHT22;7912;51.376;6.126;2023-07-20T08:33:18;25.90;95.40
15625;DHT22;7912;51.376;6.126;2023-07-20T08:35:47;26.00;95.10
15625;DHT22;7912;51.376;6.126;2023-07-20T08:38:16;26.00;94.40
15625;DHT22;7912;51.376;6.126;2023-07-20T08:40:45;26.00;94.00
15625;DHT22;7912;51.376;6.126;2023-07-20T08:43:14;26.10;94.00
15625;DHT22;7912;51.376;6.126;2023-07-20T08:45:46;26.20;93.80
15625;DHT22;7912;51.376;6.126;2023-07-20T08:48:18;26.30;93.60
15625;DHT22;7912;51.376;6.126;2023-07-20T08:50:51;26.50;93.20
15625;DHT22;7912;51.376;6.126;2023-07-20T08:53:23;26.60;92.50
15625;DHT22;7912;51.376;6.126;2023-07-20T08:55:54;26.80;92.60
15625;DHT22;7912;51.376;6.126;2023-07-20T08:58:23;27.00;91.80
15625;DHT22;7912;51.376;6.126;2023-07-20T09:00:53;27.10;91.70
15625;DHT22;7912;51.376;6.126;2023-07-20T09:03:22;27.30;91.00
15625;DHT22;7912;51.376;6.126;2023-07-20T09:05:50;27.40;89.60
15625;DHT22;7912;51.376;6.126;2023-07-20T09:08:25;27.40;88.40
15625;DHT22;7912;51.376;6.126;2023-07-20T09:10:52;27.30;87.50
15625;DHT22;7912;51.376;6.126;2023-07-20T09:13:29;27.10;88.30
15625;DHT22;7912;51.376;6.126;2023-07-20T09:15:58;27.00;87.00
15625;DHT22;7912;51.376;6.126;2023-07-20T09:18:29;26.70;88.10
15625;DHT22;7912;51.376;6.126;2023-07-20T09:21:02;26.60;88.20
15625;DHT22;7912;51.376;6.126;2023-07-20T09:23:34;26.60;88.70
15625;DHT22;7912;51.376;6.126;2023-07-20T09:26:14;26.60;88.30
15625;DHT22;7912;51.376;6.126;2023-07-20T09:28:44;26.70;87.50
15625;DHT22;7912;51.376;6.126;2023-07-20T09:31:18;26.90;87.40
15625;DHT22;7912;51.376;6.126;2023-07-20T09:33:51;27.00;87.70
15625;DHT22;7912;51.376;6.126;2023-07-20T09:36:24;27.30;88.10
15625;DHT22;7912;51.376;6.126;2023-07-20T09:38:59;27.60;87.40
15625;DHT22;7912;51.376;6.126;2023-07-20T09:41:30;27.90;83.20
15625;DHT22;7912;51.376;6.126;2023-07-20T09:44:14;28.10;81.60
15625;DHT22;7912;51.376;6.126;2023-07-20T09:46:51;28.30;82.40
15625;DHT22;7912;51.376;6.126;2023-07-20T09:49:24;28.40;81.10
15625;DHT22;7912;51.376;6.126;2023-07-20T09:51:58;28.60;78.80
15625;DHT22;7912;51.376;6.126;2023-07-20T09:54:30;28.70;77.60
15625;DHT22;7912;51.376;6.126;2023-07-20T09:57:00;28.70;76.80
15625;DHT22;7912;51.376;6.126;2023-07-20T10:02:54;28.50;76.10
15625;DHT22;7912;51.376;6.126;2023-07-20T10:05:27;28.40;77.70
15625;DHT22;7912;51.376;6.126;2023-07-20T10:08:04;28.40;77.90
15625;DHT22;7912;51.376;6.126;2023-07-20T10:10:41;28.50;78.90
15625;DHT22;7912;51.376;6.126;2023-07-20T10:13:18;28.80;79.20
15625;DHT22;7912;51.376;6.126;2023-07-20T10:15:54;29.20;75.60
15625;DHT22;7912;51.376;6.126;2023-07-20T10:19:09;29.60;74.20
15625;DHT22;7912;51.376;6.126;2023-07-20T10:21:55;29.90;71.90
15625;DHT22;7912;51.376;6.126;2023-07-20T10:24:31;30.00;71.30
15625;DHT22;7912;51.376;6.126;2023-07-20T10:27:02;30.00;71.40
15625;DHT22;7912;51.376;6.126;2023-07-20T10:29:32;30.00;70.80
15625;DHT22;7912;51.376;6.126;2023-07-20T10:32:01;30.00;71.20
15625;DHT22;7912;51.376;6.126;2023-07-20T10:34:30;29.90;71.20
15625;DHT22;7912;51.376;6.126;2023-07-20T10:36:59;30.00;71.40
15625;DHT22;7912;51.376;6.126;2023-07-20T10:39:31;30.10;71.30
15625;DHT22;7912;51.376;6.126;2023-07-20T10:42:06;30.30;70.50
15625;DHT22;7912;51.376;6.126;2023-07-20T10:45:24;30.40;70.80
15625;DHT22;7912;51.376;6.126;2023-07-20T10:48:25;30.60;70.00
15625;DHT22;7912;51.376;6.126;2023-07-20T10:51:19;31.00;69.40
15625;DHT22;7912;51.376;6.126;2023-07-20T10:53:51;31.40;66.90
15625;DHT22;7912;51.376;6.126;2023-07-20T10:56:22;31.70;66.90
15625;DHT22;7912;51.376;6.126;2023-07-20T10:58:58;32.00;65.90
15625;DHT22;7912;51.376;6.126;2023-07-20T11:01:30;32.30;65.20
15625;DHT22;7912;51.376;6.126;2023-07-20T11:07:38;33.10;61.60
15625;DHT22;7912;51.376;6.126;2023-07-20T11:10:15;33.40;59.50
15625;DHT22;7912;51.376;6.126;2023-07-20T11:18:31;33.10;59.00
15625;DHT22;7912;51.376;6.126;2023-07-20T11:21:12;33.10;58.60
15625;DHT22;7912;51.376;6.126;2023-07-20T11:23:57;32.90;57.60
15625;DHT22;7912;51.376;6.126;2023-07-20T11:30:18;32.40;57.60
15625;DHT22;7912;51.376;6.126;2023-07-20T11:32:59;32.00;57.80
15625;DHT22;7912;51.376;6.126;2023-07-20T11:35:27;31.60;58.20
15625;DHT22;7912;51.376;6.126;2023-07-20T11:37:55;31.30;58.20
15625;DHT22;7912;51.376;6.126;2023-07-20T11:40:23;31.00;58.70
15625;DHT22;7912;51.376;6.126;2023-07-20T11:43:22;30.70;58.90
15625;DHT22;7912;51.376;6.126;2023-07-20T11:46:21;30.40;59.40
15625;DHT22;7912;51.376;6.126;2023-07-20T11:49:40;30.10;60.10
15625;DHT22;7912;51.376;6.126;2023-07-20T11:52:34;29.80;61.20
15625;DHT22;7912;51.376;6.126;2023-07-20T11:55:45;29.70;61.60
15625;DHT22;7912;51.376;6.126;2023-07-20T11:59:28;29.50;61.90
15625;DHT22;7912;51.376;6.126;2023-07-20T12:02:32;29.40;62.20
15625;DHT22;7912;51.376;6.126;2023-07-20T12:05:00;29.40;61.50
15625;DHT22;7912;51.376;6.126;2023-07-20T12:07:29;29.40;62.50
15625;DHT22;7912;51.376;6.126;2023-07-20T12:10:11;29.50;62.40
15625;DHT22;7912;51.376;6.126;2023-07-20T12:12:40;29.60;61.30
15625;DHT22;7912;51.376;6.126;2023-07-20T12:15:44;29.60;61.60
15625;DHT22;7912;51.376;6.126;2023-07-20T12:18:22;29.60;62.20
15625;DHT22;7912;51.376;6.126;2023-07-20T12:21:06;29.50;62.50
15625;DHT22;7912;51.376;6.126;2023-07-20T12:23:58;29.50;62.60
15625;DHT22;7912;51.376;6.126;2023-07-20T12:26:37;29.50;62.70
15625;DHT22;7912;51.376;6.126;2023-07-20T12:29:10;29.40;62.50
15625;DHT22;7912;51.376;6.126;2023-07-20T12:31:47;29.40;62.60
15625;DHT22;7912;51.376;6.126;2023-07-20T12:34:20;29.30;62.40
15625;DHT22;7912;51.376;6.126;2023-07-20T12:36:57;29.30;63.10
15625;DHT22;7912;51.376;6.126;2023-07-20T12:39:28;29.30;63.20
15625;DHT22;7912;51.376;6.126;2023-07-20T12:41:56;29.20;63.00
15625;DHT22;7912;51.376;6.126;2023-07-20T12:44:36;29.20;63.20
15625;DHT22;7912;51.376;6.126;2023-07-20T12:47:10;29.30;62.80
15625;DHT22;7912;51.376;6.126;2023-07-20T12:49:38;29.30;63.40
15625;DHT22;7912;51.376;6.126;2023-07-20T12:52:14;29.40;64.70
15625;DHT22;7912;51.376;6.126;2023-07-20T12:54:42;29.60;65.30
15625;DHT22;7912;51.376;6.126;2023-07-20T12:57:14;29.80;64.00
15625;DHT22;7912;51.376;6.126;2023-07-20T12:59:44;30.10;63.20
15625;DHT22;7912;51.376;6.126;2023-07-20T13:02:11;30.20;63.30
15625;DHT22;7912;51.376;6.126;2023-07-20T13:04:39;30.30;62.60
15625;DHT22;7912;51.376;6.126;2023-07-20T13:07:10;30.40;62.10
15625;DHT22;7912;51.376;6.126;2023-07-20T13:09:44;30.50;61.70
15625;DHT22;7912;51.376;6.126;2023-07-20T13:16:06;30.50;60.50
15625;DHT22;7912;51.376;6.126;2023-07-20T13:18:42;30.40;60.60
15625;DHT22;7912;51.376;6.126;2023-07-20T13:21:10;30.30;60.80
15625;DHT22;7912;51.376;6.126;2023-07-20T13:23:41;30.30;61.10
15625;DHT22;7912;51.376;6.126;2023-07-20T13:26:10;30.40;60.60
15625;DHT22;7912;51.376;6.126;2023-07-20T13:29:04;30.50;59.80
15625;DHT22;7912;51.376;6.126;2023-07-20T13:31:31;30.70;59.60
15625;DHT22;7912;51.376;6.126;2023-07-20T13:34:02;30.90;59.50
15625;DHT22;7912;51.376;6.126;2023-07-20T13:36:30;31.10;59.40
15625;DHT22;7912;51.376;6.126;2023-07-20T13:38:57;31.30;59.40
15625;DHT22;7912;51.376;6.126;2023-07-20T13:41:26;31.70;58.70
15625;DHT22;7912;51.376;6.126;2023-07-20T13:43:56;32.00;58.80
15625;DHT22;7912;51.376;6.126;2023-07-20T13:46:46;32.40;58.60
15625;DHT22;7912;51.376;6.126;2023-07-20T13:49:17;32.80;57.30
15625;DHT22;7912;51.376;6.126;2023-07-20T13:51:49;33.00;57.60
15625;DHT22;7912;51.376;6.126;2023-07-20T13:54:36;33.10;57.40
15625;DHT22;7912;51.376;6.126;2023-07-20T13:57:12;33.20;56.60
15625;DHT22;7912;51.376;6.126;2023-07-20T13:59:43;33.20;55.90
15625;DHT22;7912;51.376;6.126;2023-07-20T14:02:11;33.20;55.60
15625;DHT22;7912;51.376;6.126;2023-07-20T14:05:03;33.20;54.90
15625;DHT22;7912;51.376;6.126;2023-07-20T14:07:34;33.00;53.90
15625;DHT22;7912;51.376;6.126;2023-07-20T14:10:01;32.90;54.60
15625;DHT22;7912;51.376;6.126;2023-07-20T14:12:39;32.70;54.30
15625;DHT22;7912;51.376;6.126;2023-07-20T14:15:07;32.50;54.50
15625;DHT22;7912;51.376;6.126;2023-07-20T14:17:35;32.40;54.80
15625;DHT22;7912;51.376;6.126;2023-07-20T14:20:05;32.30;55.00
15625;DHT22;7912;51.376;6.126;2023-07-20T14:22:47;32.20;55.10
15625;DHT22;7912;51.376;6.126;2023-07-20T14:25:17;32.10;55.40
15625;DHT22;7912;51.376;6.126;2023-07-20T14:27:46;32.10;55.90
15625;DHT22;7912;51.376;6.126;2023-07-20T14:30:13;32.20;56.10
15625;DHT22;7912;51.376;6.126;2023-07-20T14:32:41;32.40;55.80
15625;DHT22;7912;51.376;6.126;2023-07-20T14:35:09;32.50;55.00
15625;DHT22;7912;51.376;6.126;2023-07-20T14:37:37;32.60;54.90
15625;DHT22;7912;51.376;6.126;2023-07-20T14:40:05;32.70;55.20
15625;DHT22;7912;51.376;6.126;2023-07-20T14:42:36;32.80;54.90
15625;DHT22;7912;51.376;6.126;2023-07-20T14:45:04;33.10;54.80
15625;DHT22;7912;51.376;6.126;2023-07-20T14:47:35;33.30;54.40
15625;DHT22;7912;51.376;6.126;2023-07-20T14:50:05;33.50;53.70
15625;DHT22;7912;51.376;6.126;2023-07-20T14:52:52;33.60;53.60
15625;DHT22;7912;51.376;6.126;2023-07-20T14:55:19;33.70;53.30
15625;DHT22;7912;51.376;6.126;2023-07-20T14:57:48;33.70;53.40
15625;DHT22;7912;51.376;6.126;2023-07-20T15:00:16;33.80;53.30
15625;DHT22;7912;51.376;6.126;2023-07-20T15:02:47;33.80;53.30
15625;DHT22;7912;51.376;6.126;2023-07-20T15:05:22;33.80;52.90
15625;DHT22;7912;51.376;6.126;2023-07-20T15:10:58;33.80;52.70
15625;DHT22;7912;51.376;6.126;2023-07-20T15:13:26;33.80;53.40
15625;DHT22;7912;51.376;6.126;2023-07-20T15:15:54;33.70;52.90
15625;DHT22;7912;51.376;6.126;2023-07-20T15:18:22;33.70;52.90
15625;DHT22;7912;51.376;6.126;2023-07-20T15:21:07;33.60;52.80
15625;DHT22;7912;51.376;6.126;2023-07-20T15:23:35;33.50;52.50
15625;DHT22;7912;51.376;6.126;2023-07-20T15:26:02;33.50;52.50
15625;DHT22;7912;51.376;6.126;2023-07-20T15:28:31;33.40;52.40
15625;DHT22;7912;51.376;6.126;2023-07-20T15:31:00;33.30;52.70
15625;DHT22;7912;51.376;6.126;2023-07-20T15:33:29;33.10;53.30
15625;DHT22;7912;51.376;6.126;2023-07-20T15:35:57;33.10;53.10
15625;DHT22;7912;51.376;6.126;2023-07-20T15:38:24;33.10;53.50
15625;DHT22;7912;51.376;6.126;2023-07-20T15:40:53;33.10;53.60
15625;DHT22;7912;51.376;6.126;2023-07-20T15:43:22;33.30;53.70
15625;DHT22;7912;51.376;6.126;2023-07-20T15:45:50;33.40;53.60
15625;DHT22;7912;51.376;6.126;2023-07-20T15:48:18;33.50;53.50
15625;DHT22;7912;51.376;6.126;2023-07-20T15:50:49;33.50;53.00
15625;DHT22;7912;51.376;6.126;2023-07-20T15:53:19;33.60;53.30
15625;DHT22;7912;51.376;6.126;2023-07-20T15:55:53;33.80;52.90
15625;DHT22;7912;51.376;6.126;2023-07-20T15:58:23;33.90;52.50
15625;DHT22;7912;51.376;6.126;2023-07-20T16:00:55;33.90;52.30
15625;DHT22;7912;51.376;6.126;2023-07-20T16:03:23;33.80;52.20
15625;DHT22;7912;51.376;6.126;2023-07-20T16:06:04;33.60;52.30
15625;DHT22;7912;51.376;6.126;2023-07-20T16:08:35;33.40;52.30
15625;DHT22;7912;51.376;6.126;2023-07-20T16:11:02;33.10;52.30
15625;DHT22;7912;51.376;6.126;2023-07-20T16:13:30;32.70;52.10
15625;DHT22;7912;51.376;6.126;2023-07-20T16:15:58;32.40;52.50
15625;DHT22;7912;51.376;6.126;2023-07-20T16:18:25;32.10;52.60
15625;DHT22;7912;51.376;6.126;2023-07-20T16:20:54;31.80;53.30
15625;DHT22;7912;51.376;6.126;2023-07-20T16:23:25;31.50;53.60
15625;DHT22;7912;51.376;6.126;2023-07-20T16:25:52;31.20;53.80
15625;DHT22;7912;51.376;6.126;2023-07-20T16:28:20;30.90;54.10
15625;DHT22;7912;51.376;6.126;2023-07-20T16:30:47;30.70;54.40
15625;DHT22;7912;51.376;6.126;2023-07-20T16:33:15;30.50;54.60
15625;DHT22;7912;51.376;6.126;2023-07-20T16:35:43;30.30;54.80
15625;DHT22;7912;51.376;6.126;2023-07-20T16:38:16;30.10;55.00
15625;DHT22;7912;51.376;6.126;2023-07-20T16:40:44;29.90;55.10
15625;DHT22;7912;51.376;6.126;2023-07-20T16:43:15;29.70;55.50
15625;DHT22;7912;51.376;6.126;2023-07-20T16:46:07;29.60;55.80
15625;DHT22;7912;51.376;6.126;2023-07-20T16:48:39;29.40;56.10
15625;DHT22;7912;51.376;6.126;2023-07-20T16:51:09;29.30;56.20
15625;DHT22;7912;51.376;6.126;2023-07-20T16:53:37;29.10;56.30
15625;DHT22;7912;51.376;6.126;2023-07-20T16:56:05;29.00;56.50
15625;DHT22;7912;51.376;6.126;2023-07-20T16:58:32;28.80;56.70
15625;DHT22;7912;51.376;6.126;2023-07-20T17:01:05;28.60;57.00
15625;DHT22;7912;51.376;6.126;2023-07-20T17:03:34;28.50;57.30
15625;DHT22;7912;51.376;6.126;2023-07-20T17:06:04;28.30;57.50
15625;DHT22;7912;51.376;6.126;2023-07-20T17:08:34;28.20;57.50
15625;DHT22;7912;51.376;6.126;2023-07-20T17:11:02;28.00;57.50
15625;DHT22;7912;51.376;6.126;2023-07-20T17:13:30;27.90;57.60
15625;DHT22;7912;51.376;6.126;2023-07-20T17:16:00;27.80;57.70
15625;DHT22;7912;51.376;6.126;2023-07-20T17:18:29;27.70;58.00
15625;DHT22;7912;51.376;6.126;2023-07-20T17:20:57;27.60;58.10
15625;DHT22;7912;51.376;6.126;2023-07-20T17:23:25;27.50;58.20
15625;DHT22;7912;51.376;6.126;2023-07-20T17:25:59;27.50;58.40
15625;DHT22;7912;51.376;6.126;2023-07-20T17:28:33;27.40;58.60
15625;DHT22;7912;51.376;6.126;2023-07-20T17:31:03;27.30;58.80
15625;DHT22;7912;51.376;6.126;2023-07-20T17:33:31;27.20;59.00
15625;DHT22;7912;51.376;6.126;2023-07-20T17:35:59;27.10;59.70
15625;DHT22;7912;51.376;6.126;2023-07-20T17:38:31;27.00;59.20
15625;DHT22;7912;51.376;6.126;2023-07-20T17:41:01;27.00;59.40
15625;DHT22;7912;51.376;6.126;2023-07-20T17:43:31;27.00;59.50
15625;DHT22;7912;51.376;6.126;2023-07-20T17:45:59;26.90;59.60
15625;DHT22;7912;51.376;6.126;2023-07-20T17:48:30;26.80;59.70
15625;DHT22;7912;51.376;6.126;2023-07-20T17:51:02;26.70;59.80
15625;DHT22;7912;51.376;6.126;2023-07-20T17:53:29;26.60;60.00
15625;DHT22;7912;51.376;6.126;2023-07-20T17:55:57;26.60;60.20
15625;DHT22;7912;51.376;6.126;2023-07-20T17:58:27;26.50;60.30
15625;DHT22;7912;51.376;6.126;2023-07-20T18:00:58;26.40;60.50
15625;DHT22;7912;51.376;6.126;2023-07-20T18:03:26;26.30;60.70
15625;DHT22;7912;51.376;6.126;2023-07-20T18:05:55;26.30;60.90
15625;DHT22;7912;51.376;6.126;2023-07-20T18:08:23;26.20;61.00
15625;DHT22;7912;51.376;6.126;2023-07-20T18:10:52;26.20;61.20
15625;DHT22;7912;51.376;6.126;2023-07-20T18:13:20;26.00;61.40
15625;DHT22;7912;51.376;6.126;2023-07-20T18:15:54;26.00;61.90
15625;DHT22;7912;51.376;6.126;2023-07-20T18:18:24;26.00;62.50
15625;DHT22;7912;51.376;6.126;2023-07-20T18:21:01;25.90;62.50
15625;DHT22;7912;51.376;6.126;2023-07-20T18:23:28;25.80;62.60
15625;DHT22;7912;51.376;6.126;2023-07-20T18:25:57;25.80;63.00
15625;DHT22;7912;51.376;6.126;2023-07-20T18:28:28;25.70;63.30
15625;DHT22;7912;51.376;6.126;2023-07-20T18:30:56;25.70;63.60
15625;DHT22;7912;51.376;6.126;2023-07-20T18:33:23;25.60;64.00
15625;DHT22;7912;51.376;6.126;2023-07-20T18:35:53;25.50;64.40
15625;DHT22;7912;51.376;6.126;2023-07-20T18:38:21;25.50;64.90
15625;DHT22;7912;51.376;6.126;2023-07-20T18:40:49;25.40;65.30
15625;DHT22;7912;51.376;6.126;2023-07-20T18:43:17;25.30;65.80
15625;DHT22;7912;51.376;6.126;2023-07-20T18:45:46;25.20;66.30
15625;DHT22;7912;51.376;6.126;2023-07-20T18:48:16;25.20;66.80
15625;DHT22;7912;51.376;6.126;2023-07-20T18:50:44;25.10;67.10
15625;DHT22;7912;51.376;6.126;2023-07-20T18:53:12;25.10;67.60
15625;DHT22;7912;51.376;6.126;2023-07-20T18:55:39;25.00;68.00
15625;DHT22;7912;51.376;6.126;2023-07-20T18:58:07;24.90;68.70
15625;DHT22;7912;51.376;6.126;2023-07-20T19:00:37;24.90;69.30
15625;DHT22;7912;51.376;6.126;2023-07-20T19:03:06;24.80;70.10
15625;DHT22;7912;51.376;6.126;2023-07-20T19:05:34;24.70;70.80
15625;DHT22;7912;51.376;6.126;2023-07-20T19:08:04;24.70;71.10
15625;DHT22;7912;51.376;6.126;2023-07-20T19:10:32;24.50;71.20
15625;DHT22;7912;51.376;6.126;2023-07-20T19:13:04;24.50;71.60
15625;DHT22;7912;51.376;6.126;2023-07-20T19:15:32;24.40;72.10
15625;DHT22;7912;51.376;6.126;2023-07-20T19:17:59;24.30;72.60
15625;DHT22;7912;51.376;6.126;2023-07-20T19:20:27;24.20;73.00
15625;DHT22;7912;51.376;6.126;2023-07-20T19:22:55;24.00;73.50
15625;DHT22;7912;51.376;6.126;2023-07-20T19:25:22;23.90;74.20
15625;DHT22;7912;51.376;6.126;2023-07-20T19:27:50;23.80;75.00
15625;DHT22;7912;51.376;6.126;2023-07-20T19:30:17;23.70;75.90